Private Wetterstation Wechselburg
Wetterdaten: Mittwoch, 12.09.2012
Datum Zeit Temp. +2m Bodentemp. Temp.+5cm Temp. Wind Windchill X Diff Temp. Feuchte +2m Feuchte +5cm Sonnenschein Luftdruck Regen Wind Richtung Richtung Sonnenschein UV Taupunkt Windchill Windben
12.09.2012 00:00 15,7 C 23,5 C 16,6 C 16,2 C 16,2 C 0,5 C 89 % 95 % 0 % 1009,3 hPa 0,0 l/m 3,5 km/h (1 Bft) W-SW 247 0 min 0,0 UV-I 13,9 C 16,2 C 7,1 km/h (2 Bft)
12.09.2012 00:05 15,8 C 23,5 C 16,4 C 16,1 C 16,1 C 0,3 C 89 % 95 % 0 % 1009,5 hPa 0,7 l/m 4,8 km/h (1 Bft) W 270 0 min 0,0 UV-I 14,0 C 16,1 C 0,0 km/h (0 Bft)
12.09.2012 00:10 15,7 C 23,5 C 16,3 C 16,0 C 16,0 C 0,3 C 88 % 95 % 0 % 1009,5 hPa 0,0 l/m 4,3 km/h (1 Bft) S-SW 202 0 min 0,0 UV-I 13,7 C 16,0 C 0,0 km/h (0 Bft)
12.09.2012 00:15 15,6 C 23,5 C 16,1 C 15,8 C 15,8 C 0,2 C 88 % 95 % 0 % 1009,5 hPa 0,0 l/m 2,1 km/h (1 Bft) S 180 0 min 0,0 UV-I 13,6 C 15,8 C 0,0 km/h (0 Bft)
12.09.2012 00:20 15,4 C 23,5 C 16,1 C 15,7 C 15,7 C 0,3 C 88 % 95 % 0 % 1009,5 hPa 0,0 l/m 1,4 km/h (1 Bft) S 180 0 min 0,0 UV-I 13,4 C 15,7 C 3,9 km/h (1 Bft)
12.09.2012 00:25 15,3 C 23,5 C 16,1 C 15,6 C 15,6 C 0,3 C 88 % 95 % 0 % 1009,4 hPa 0,0 l/m 1,1 km/h (1 Bft) O 90 0 min 0,0 UV-I 13,3 C 15,6 C 0,0 km/h (0 Bft)
12.09.2012 00:30 15,3 C 23,4 C 16,0 C 15,5 C 15,5 C 0,2 C 88 % 95 % 0 % 1009,4 hPa 0,0 l/m 1,0 km/h (0 Bft) SW 225 0 min 0,0 UV-I 13,3 C 15,5 C 2,3 km/h (1 Bft)
12.09.2012 00:35 15,2 C 23,4 C 15,9 C 15,4 C 15,4 C 0,2 C 88 % 95 % 0 % 1009,4 hPa 0,0 l/m 0,8 km/h (0 Bft) SW 225 0 min 0,0 UV-I 13,2 C 15,4 C 0,0 km/h (0 Bft)
12.09.2012 00:41 15,2 C 23,4 C 15,9 C 15,4 C 15,4 C 0,2 C 88 % 95 % 0 % 1009,4 hPa 0,0 l/m 1,0 km/h (0 Bft) N 0 0 min 0,0 UV-I 13,2 C 15,4 C 2,1 km/h (1 Bft)
12.09.2012 00:55 14,9 C 23,4 C 15,5 C 15,2 C 15,2 C 0,3 C 88 % 95 % 0 % 1009,5 hPa 0,7 l/m 0,5 km/h (0 Bft) N-NO 22 0 min 0,0 UV-I 12,9 C 15,2 C 0,0 km/h (0 Bft)
12.09.2012 01:00 14,8 C 23,4 C 15,5 C 15,1 C 15,1 C 0,3 C 88 % 95 % 0 % 1009,5 hPa 0,0 l/m 0,3 km/h (0 Bft) N-NW 337 0 min 0,0 UV-I 12,8 C 15,1 C 0,0 km/h (0 Bft)
12.09.2012 01:05 14,9 C 23,3 C 15,5 C 15,1 C 15,1 C 0,2 C 88 % 95 % 0 % 1009,3 hPa 0,0 l/m 0,3 km/h (0 Bft) S-SO 157 0 min 0,0 UV-I 12,9 C 15,1 C 0,0 km/h (0 Bft)
12.09.2012 01:10 14,8 C 23,3 C 15,5 C 15,1 C 15,1 C 0,3 C 88 % 95 % 0 % 1009,3 hPa 0,0 l/m 0,2 km/h (0 Bft) SW 225 0 min 0,0 UV-I 12,8 C 15,1 C 0,0 km/h (0 Bft)
12.09.2012 01:15 14,8 C 23,3 C 15,5 C 15,1 C 15,1 C 0,3 C 88 % 95 % 0 % 1009,3 hPa 0,0 l/m 0,0 km/h (0 Bft) O-NO 67 0 min 0,0 UV-I 12,8 C 15,1 C 0,0 km/h (0 Bft)
12.09.2012 01:20 14,8 C 23,3 C 15,5 C 15,1 C 15,1 C 0,3 C 88 % 95 % 0 % 1009,3 hPa 0,0 l/m 0,2 km/h (0 Bft) W-SW 247 0 min 0,0 UV-I 12,8 C 15,1 C 2,1 km/h (1 Bft)
12.09.2012 01:25 14,8 C 23,3 C 15,6 C 15,1 C 15,1 C 0,3 C 88 % 95 % 0 % 1009,6 hPa 0,0 l/m 1,1 km/h (1 Bft) W-SW 247 0 min 0,0 UV-I 12,8 C 15,1 C 6,9 km/h (2 Bft)
12.09.2012 01:30 14,6 C 23,3 C 15,5 C 15,0 C 15,0 C 0,4 C 88 % 95 % 0 % 1009,6 hPa 0,0 l/m 2,4 km/h (1 Bft) S 180 0 min 0,0 UV-I 12,6 C 15,0 C 4,5 km/h (1 Bft)
12.09.2012 01:35 14,4 C 23,2 C 15,2 C 14,8 C 14,8 C 0,4 C 88 % 95 % 0 % 1009,6 hPa 0,0 l/m 4,0 km/h (1 Bft) W 270 0 min 0,0 UV-I 12,4 C 14,8 C 5,3 km/h (1 Bft)
12.09.2012 01:40 14,4 C 23,2 C 15,2 C 14,7 C 14,7 C 0,3 C 88 % 95 % 0 % 1009,6 hPa 0,0 l/m 3,9 km/h (1 Bft) S-SW 202 0 min 0,0 UV-I 12,4 C 14,7 C 3,5 km/h (1 Bft)
12.09.2012 01:45 14,1 C 23,2 C 15,1 C 14,4 C 14,4 C 0,3 C 88 % 95 % 0 % 1009,8 hPa 0,0 l/m 4,7 km/h (1 Bft) N-NO 22 0 min 0,0 UV-I 12,1 C 14,4 C 9,2 km/h (2 Bft)
12.09.2012 01:50 13,9 C 23,3 C 14,8 C 14,1 C 14,1 C 0,2 C 88 % 95 % 0 % 1009,8 hPa 0,0 l/m 5,0 km/h (1 Bft) S-SO 157 0 min 0,0 UV-I 11,9 C 14,1 C 3,9 km/h (1 Bft)
12.09.2012 01:55 13,7 C 23,2 C 14,6 C 13,9 C 13,9 C 0,2 C 88 % 95 % 0 % 1009,8 hPa 0,7 l/m 4,7 km/h (1 Bft) S 180 0 min 0,0 UV-I 11,7 C 13,9 C 11,6 km/h (2 Bft)
12.09.2012 02:00 13,6 C 23,2 C 14,6 C 13,9 C 13,9 C 0,3 C 88 % 95 % 0 % 1009,8 hPa 0,0 l/m 4,2 km/h (1 Bft) W 270 0 min 0,0 UV-I 11,6 C 13,9 C 4,5 km/h (1 Bft)
12.09.2012 02:05 13,5 C 23,2 C 14,5 C 13,8 C 13,8 C 0,3 C 88 % 94 % 0 % 1009,9 hPa 0,0 l/m 3,2 km/h (1 Bft) S 180 0 min 0,0 UV-I 11,6 C 13,8 C 1,9 km/h (1 Bft)
12.09.2012 02:10 13,5 C 23,2 C 14,5 C 13,7 C 13,7 C 0,2 C 89 % 95 % 0 % 1009,9 hPa 0,0 l/m 1,9 km/h (1 Bft) W-SW 247 0 min 0,0 UV-I 11,7 C 13,7 C 0,0 km/h (0 Bft)
12.09.2012 02:15 13,5 C 23,2 C 14,3 C 13,7 C 13,7 C 0,2 C 89 % 95 % 0 % 1009,9 hPa 0,0 l/m 1,0 km/h (0 Bft) SW 225 0 min 0,0 UV-I 11,7 C 13,7 C 0,0 km/h (0 Bft)
12.09.2012 02:20 13,4 C 23,2 C 14,3 C 13,7 C 13,7 C 0,3 C 88 % 95 % 0 % 1009,9 hPa 0,0 l/m 0,6 km/h (0 Bft) SO 135 0 min 0,0 UV-I 11,5 C 13,7 C 0,0 km/h (0 Bft)
12.09.2012 02:25 13,5 C 23,1 C 14,3 C 13,6 C 13,6 C 0,1 C 89 % 95 % 0 % 1009,9 hPa 0,7 l/m 0,2 km/h (0 Bft) NW 315 0 min 0,0 UV-I 11,7 C 13,6 C 0,0 km/h (0 Bft)
12.09.2012 02:30 13,3 C 23,1 C 14,1 C 13,5 C 13,5 C 0,2 C 88 % 95 % 0 % 1009,9 hPa 0,0 l/m 0,5 km/h (0 Bft) O-NO 67 0 min 0,0 UV-I 11,4 C 13,5 C 0,0 km/h (0 Bft)
12.09.2012 02:35 13,3 C 23,1 C 13,9 C 13,4 C 13,4 C 0,1 C 88 % 95 % 0 % 1009,9 hPa 0,0 l/m 1,1 km/h (1 Bft) S 180 0 min 0,0 UV-I 11,4 C 13,4 C 5,1 km/h (1 Bft)
12.09.2012 02:40 13,2 C 23,1 C 13,9 C 13,4 C 13,4 C 0,2 C 88 % 95 % 0 % 1009,9 hPa 0,0 l/m 1,1 km/h (1 Bft) NO 45 0 min 0,0 UV-I 11,3 C 13,4 C 0,0 km/h (0 Bft)
12.09.2012 02:45 13,1 C 23,1 C 14,1 C 13,4 C 13,4 C 0,3 C 88 % 95 % 0 % 1010,2 hPa 0,0 l/m 1,1 km/h (1 Bft) W 270 0 min 0,0 UV-I 11,2 C 13,4 C 2,6 km/h (1 Bft)
12.09.2012 02:50 13,1 C 23,1 C 14,0 C 13,3 C 13,3 C 0,2 C 88 % 95 % 0 % 1010,2 hPa 0,0 l/m 1,4 km/h (1 Bft) W-SW 247 0 min 0,0 UV-I 11,2 C 13,3 C 4,5 km/h (1 Bft)
12.09.2012 02:55 12,9 C 23,0 C 14,0 C 13,2 C 13,2 C 0,3 C 88 % 95 % 0 % 1010,2 hPa 0,0 l/m 3,1 km/h (1 Bft) W-SW 247 0 min 0,0 UV-I 11,0 C 13,2 C 7,9 km/h (2 Bft)
12.09.2012 03:00 12,8 C 23,0 C 13,9 C 13,1 C 13,1 C 0,3 C 88 % 95 % 0 % 1010,2 hPa 0,0 l/m 3,1 km/h (1 Bft) SW 225 0 min 0,0 UV-I 10,9 C 13,1 C 2,9 km/h (1 Bft)
12.09.2012 03:05 12,9 C 23,0 C 13,9 C 13,0 C 13,0 C 0,1 C 88 % 95 % 0 % 1009,8 hPa 0,0 l/m 2,7 km/h (1 Bft) W 270 0 min 0,0 UV-I 11,0 C 13,0 C 6,0 km/h (2 Bft)
12.09.2012 03:10 12,8 C 23,0 C 13,9 C 13,1 C 13,1 C 0,3 C 89 % 95 % 0 % 1009,8 hPa 0,0 l/m 2,7 km/h (1 Bft) W 270 0 min 0,0 UV-I 11,0 C 13,1 C 2,9 km/h (1 Bft)
12.09.2012 03:15 12,7 C 22,9 C 13,9 C 13,0 C 13,0 C 0,3 C 89 % 95 % 0 % 1009,8 hPa 0,7 l/m 2,6 km/h (1 Bft) W-SW 247 0 min 0,0 UV-I 10,9 C 13,0 C 4,5 km/h (1 Bft)
12.09.2012 03:20 12,6 C 22,9 C 13,9 C 13,0 C 13,0 C 0,4 C 89 % 95 % 0 % 1009,8 hPa 0,0 l/m 2,4 km/h (1 Bft) W 270 0 min 0,0 UV-I 10,8 C 13,0 C 2,4 km/h (1 Bft)
12.09.2012 03:25 12,7 C 22,9 C 13,9 C 13,0 C 13,0 C 0,3 C 89 % 95 % 0 % 1010,1 hPa 0,7 l/m 2,1 km/h (1 Bft) SW 225 0 min 0,0 UV-I 10,9 C 13,0 C 3,7 km/h (1 Bft)
12.09.2012 03:30 12,7 C 22,9 C 13,9 C 13,0 C 13,0 C 0,3 C 89 % 95 % 0 % 1010,1 hPa 0,0 l/m 1,9 km/h (1 Bft) W 270 0 min 0,0 UV-I 10,9 C 13,0 C 3,2 km/h (1 Bft)
12.09.2012 03:35 12,7 C 22,9 C 13,7 C 13,0 C 13,0 C 0,3 C 89 % 95 % 0 % 1010,1 hPa 0,0 l/m 1,4 km/h (1 Bft) S-SO 157 0 min 0,0 UV-I 10,9 C 13,0 C 3,1 km/h (1 Bft)
12.09.2012 03:40 12,5 C 22,9 C 13,6 C 12,9 C 12,9 C 0,4 C 89 % 95 % 0 % 1010,1 hPa 0,0 l/m 1,1 km/h (1 Bft) S 180 0 min 0,0 UV-I 10,7 C 12,9 C 0,0 km/h (0 Bft)
12.09.2012 03:45 12,5 C 22,8 C 13,4 C 12,8 C 12,8 C 0,3 C 89 % 95 % 0 % 1010,3 hPa 0,0 l/m 0,8 km/h (0 Bft) S 180 0 min 0,0 UV-I 10,7 C 12,8 C 0,0 km/h (0 Bft)
12.09.2012 03:50 12,5 C 22,8 C 13,5 C 12,8 C 12,8 C 0,3 C 89 % 95 % 0 % 1010,3 hPa 0,0 l/m 0,2 km/h (0 Bft) W-SW 247 0 min 0,0 UV-I 10,7 C 12,8 C 0,0 km/h (0 Bft)
12.09.2012 03:55 12,4 C 22,8 C 13,5 C 12,8 C 12,8 C 0,4 C 89 % 96 % 0 % 1010,3 hPa 0,0 l/m 0,5 km/h (0 Bft) S-SW 202 0 min 0,0 UV-I 10,6 C 12,8 C 3,7 km/h (1 Bft)
12.09.2012 04:00 12,4 C 22,8 C 13,5 C 12,8 C 12,8 C 0,4 C 89 % 96 % 0 % 1010,3 hPa 0,0 l/m 1,0 km/h (0 Bft) S 180 0 min 0,0 UV-I 10,6 C 12,8 C 0,0 km/h (0 Bft)
12.09.2012 04:05 12,4 C 22,8 C 13,4 C 12,8 C 12,8 C 0,4 C 89 % 96 % 0 % 1010,2 hPa 0,0 l/m 0,6 km/h (0 Bft) S 180 0 min 0,0 UV-I 10,6 C 12,8 C 1,8 km/h (1 Bft)
12.09.2012 04:10 12,4 C 22,8 C 13,4 C 12,8 C 12,8 C 0,4 C 89 % 96 % 0 % 1010,2 hPa 0,0 l/m 1,1 km/h (1 Bft) S-SW 202 0 min 0,0 UV-I 10,6 C 12,8 C 1,6 km/h (1 Bft)
12.09.2012 04:15 12,3 C 22,7 C 13,3 C 12,7 C 12,7 C 0,4 C 89 % 96 % 0 % 1010,2 hPa 0,7 l/m 1,1 km/h (1 Bft) N-NW 337 0 min 0,0 UV-I 10,5 C 12,7 C 1,6 km/h (1 Bft)
12.09.2012 04:20 12,3 C 22,7 C 13,2 C 12,6 C 12,6 C 0,3 C 89 % 96 % 0 % 1010,2 hPa 0,0 l/m 0,3 km/h (0 Bft) SO 135 0 min 0,0 UV-I 10,5 C 12,6 C 0,0 km/h (0 Bft)
12.09.2012 04:25 12,2 C 22,7 C 13,3 C 12,6 C 12,6 C 0,4 C 89 % 96 % 0 % 1010,3 hPa 0,0 l/m 0,2 km/h (0 Bft) O 90 0 min 0,0 UV-I 10,4 C 12,6 C 0,0 km/h (0 Bft)
12.09.2012 04:30 12,3 C 22,7 C 13,2 C 12,6 C 12,6 C 0,3 C 89 % 96 % 0 % 1010,3 hPa 0,0 l/m 0,0 km/h (0 Bft) O-SO 112 0 min 0,0 UV-I 10,5 C 12,6 C 0,0 km/h (0 Bft)
12.09.2012 04:35 12,3 C 22,6 C 13,1 C 12,5 C 12,5 C 0,2 C 89 % 95 % 0 % 1010,3 hPa 0,0 l/m 0,0 km/h (0 Bft) S-SW 202 0 min 0,0 UV-I 10,5 C 12,5 C 0,0 km/h (0 Bft)
12.09.2012 04:40 12,3 C 22,6 C 13,1 C 12,5 C 12,5 C 0,2 C 89 % 95 % 0 % 1010,3 hPa 0,0 l/m 0,0 km/h (0 Bft) N-NO 22 0 min 0,0 UV-I 10,5 C 12,5 C 0,0 km/h (0 Bft)
12.09.2012 04:45 12,2 C 22,6 C 13,1 C 12,5 C 12,5 C 0,3 C 90 % 95 % 0 % 1010,1 hPa 0,0 l/m 0,0 km/h (0 Bft) W 270 0 min 0,0 UV-I 10,6 C 12,5 C 0,0 km/h (0 Bft)
12.09.2012 04:50 12,2 C 22,6 C 13,2 C 12,5 C 12,5 C 0,3 C 90 % 96 % 0 % 1010,1 hPa 0,0 l/m 0,0 km/h (0 Bft) W-SW 247 0 min 0,0 UV-I 10,6 C 12,5 C 0,0 km/h (0 Bft)
12.09.2012 04:55 12,1 C 22,6 C 13,2 C 12,5 C 12,5 C 0,4 C 90 % 96 % 0 % 1010,1 hPa 0,0 l/m 0,0 km/h (0 Bft) S-SW 202 0 min 0,0 UV-I 10,5 C 12,5 C 0,0 km/h (0 Bft)
12.09.2012 05:00 12,1 C 22,5 C 13,3 C 12,4 C 12,4 C 0,3 C 90 % 96 % 0 % 1010,1 hPa 0,0 l/m 0,0 km/h (0 Bft) W-SW 247 0 min 0,0 UV-I 10,5 C 12,4 C 0,0 km/h (0 Bft)
12.09.2012 05:05 12,0 C 22,5 C 13,2 C 12,4 C 12,4 C 0,4 C 90 % 96 % 0 % 1010,4 hPa 0,0 l/m 0,0 km/h (0 Bft) SW 225 0 min 0,0 UV-I 10,4 C 12,4 C 0,0 km/h (0 Bft)
12.09.2012 05:10 12,0 C 22,5 C 13,2 C 12,4 C 12,4 C 0,4 C 90 % 96 % 0 % 1010,4 hPa 0,0 l/m 0,0 km/h (0 Bft) W-SW 247 0 min 0,0 UV-I 10,4 C 12,4 C 0,0 km/h (0 Bft)
12.09.2012 05:15 12,1 C 22,5 C 13,3 C 12,4 C 12,4 C 0,3 C 90 % 96 % 0 % 1010,4 hPa 0,7 l/m 0,0 km/h (0 Bft) SW 225 0 min 0,0 UV-I 10,5 C 12,4 C 0,0 km/h (0 Bft)
12.09.2012 05:20 12,1 C 22,5 C 13,1 C 12,4 C 12,4 C 0,3 C 90 % 95 % 0 % 1010,4 hPa 0,0 l/m 0,0 km/h (0 Bft) S-SW 202 0 min 0,0 UV-I 10,5 C 12,4 C 0,0 km/h (0 Bft)
12.09.2012 05:25 12,0 C 22,4 C 13,1 C 12,3 C 12,3 C 0,3 C 90 % 95 % 0 % 1010,5 hPa 0,0 l/m 0,0 km/h (0 Bft) S-SW 202 0 min 0,0 UV-I 10,4 C 12,3 C 0,0 km/h (0 Bft)
12.09.2012 05:30 12,0 C 22,4 C 13,0 C 12,2 C 12,2 C 0,2 C 90 % 95 % 0 % 1010,5 hPa 0,0 l/m 0,0 km/h (0 Bft) SW 225 0 min 0,0 UV-I 10,4 C 12,2 C 0,0 km/h (0 Bft)
12.09.2012 05:35 11,9 C 22,4 C 13,0 C 12,2 C 12,2 C 0,3 C 90 % 95 % 0 % 1010,5 hPa 0,7 l/m 0,0 km/h (0 Bft) W 270 0 min 0,0 UV-I 10,3 C 12,2 C 0,0 km/h (0 Bft)
12.09.2012 05:40 11,9 C 22,4 C 13,0 C 12,1 C 12,1 C 0,2 C 90 % 95 % 0 % 1010,5 hPa 0,0 l/m 0,0 km/h (0 Bft) W-SW 247 0 min 0,0 UV-I 10,3 C 12,1 C 0,0 km/h (0 Bft)
12.09.2012 05:45 11,9 C 22,4 C 13,0 C 12,1 C 12,1 C 0,2 C 90 % 95 % 0 % 1010,2 hPa 0,0 l/m 0,0 km/h (0 Bft) S-SW 202 0 min 0,0 UV-I 10,3 C 12,1 C 0,0 km/h (0 Bft)
12.09.2012 05:50 11,9 C 22,4 C 13,0 C 12,1 C 12,1 C 0,2 C 90 % 95 % 0 % 1010,2 hPa 0,0 l/m 0,0 km/h (0 Bft) S-SO 157 0 min 0,0 UV-I 10,3 C 12,1 C 0,0 km/h (0 Bft)
12.09.2012 05:55 11,9 C 22,3 C 12,9 C 12,1 C 12,1 C 0,2 C 90 % 96 % 0 % 1010,2 hPa 0,0 l/m 0,0 km/h (0 Bft) O-SO 112 0 min 0,0 UV-I 10,3 C 12,1 C 0,0 km/h (0 Bft)
12.09.2012 06:00 11,9 C 22,3 C 12,8 C 12,1 C 12,1 C 0,2 C 90 % 96 % 0 % 1010,2 hPa 0,0 l/m 0,0 km/h (0 Bft) O-NO 67 0 min 0,0 UV-I 10,3 C 12,1 C 0,0 km/h (0 Bft)
12.09.2012 06:05 11,8 C 22,3 C 12,8 C 12,1 C 12,1 C 0,3 C 90 % 96 % 0 % 1010,2 hPa 0,0 l/m 0,0 km/h (0 Bft) S 180 0 min 0,0 UV-I 10,2 C 12,1 C 0,0 km/h (0 Bft)
12.09.2012 06:10 11,7 C 22,3 C 12,8 C 12,1 C 12,1 C 0,4 C 90 % 96 % 0 % 1010,2 hPa 0,0 l/m 0,0 km/h (0 Bft) S-SW 202 0 min 0,0 UV-I 10,1 C 12,1 C 0,0 km/h (0 Bft)
12.09.2012 06:15 11,7 C 22,3 C 12,8 C 12,1 C 12,1 C 0,4 C 90 % 96 % 0 % 1010,2 hPa 0,7 l/m 0,3 km/h (0 Bft) S-SW 202 0 min 0,0 UV-I 10,1 C 12,1 C 2,1 km/h (1 Bft)
12.09.2012 06:20 11,7 C 22,2 C 12,9 C 12,1 C 12,1 C 0,4 C 90 % 96 % 0 % 1010,2 hPa 0,0 l/m 0,3 km/h (0 Bft) S 180 0 min 0,0 UV-I 10,1 C 12,1 C 0,0 km/h (0 Bft)
12.09.2012 06:25 11,7 C 22,2 C 12,9 C 12,1 C 12,1 C 0,4 C 90 % 96 % 0 % 1010,2 hPa 0,0 l/m 0,2 km/h (0 Bft) O-SO 112 0 min 0,0 UV-I 10,1 C 12,1 C 0,0 km/h (0 Bft)
12.09.2012 06:30 11,7 C 22,2 C 12,8 C 12,1 C 12,1 C 0,4 C 90 % 96 % 0 % 1010,2 hPa 0,0 l/m 0,0 km/h (0 Bft) S-SW 202 0 min 0,0 UV-I 10,1 C 12,1 C 2,3 km/h (1 Bft)
12.09.2012 06:35 11,7 C 22,2 C 12,8 C 12,1 C 12,1 C 0,4 C 90 % 96 % 0 % 1010,2 hPa 0,0 l/m 0,0 km/h (0 Bft) O-SO 112 0 min 0,0 UV-I 10,1 C 12,1 C 0,0 km/h (0 Bft)
12.09.2012 06:41 11,7 C 22,1 C 12,7 C 12,1 C 12,1 C 0,4 C 90 % 96 % 0 % 1010,1 hPa 0,0 l/m 0,0 km/h (0 Bft) N 0 0 min 0,0 UV-I 10,1 C 12,1 C 0,0 km/h (0 Bft)
12.09.2012 06:55 11,7 C 22,1 C 12,8 C 12,0 C 12,0 C 0,3 C 90 % 96 % 8 % 1010,1 hPa 0,0 l/m 0,0 km/h (0 Bft) SW 225 14 min 0,0 UV-I 10,1 C 12,0 C 0,0 km/h (0 Bft)
12.09.2012 07:00 11,6 C 22,1 C 12,7 C 12,0 C 12,0 C 0,4 C 90 % 96 % 11 % 1010,1 hPa 0,0 l/m 0,0 km/h (0 Bft) NW 315 5 min 0,0 UV-I 10,0 C 12,0 C 0,0 km/h (0 Bft)
12.09.2012 07:05 11,6 C 22,1 C 12,7 C 12,0 C 12,0 C 0,4 C 90 % 96 % 11 % 1010,5 hPa 0,0 l/m 0,2 km/h (0 Bft) O-SO 112 0 min 0,0 UV-I 10,0 C 12,0 C 0,0 km/h (0 Bft)
12.09.2012 07:10 11,6 C 22,2 C 12,7 C 12,0 C 12,0 C 0,4 C 90 % 96 % 11 % 1010,5 hPa 0,0 l/m 0,2 km/h (0 Bft) W 270 0 min 0,0 UV-I 10,0 C 12,0 C 0,0 km/h (0 Bft)
12.09.2012 07:15 11,6 C 22,0 C 12,7 C 12,0 C 12,0 C 0,4 C 90 % 96 % 11 % 1010,5 hPa 0,0 l/m 0,0 km/h (0 Bft) N-NO 22 0 min 0,0 UV-I 10,0 C 12,0 C 1,6 km/h (1 Bft)
12.09.2012 07:20 11,7 C 22,1 C 12,7 C 12,0 C 12,0 C 0,3 C 90 % 96 % 8 % 1010,5 hPa 0,7 l/m 0,2 km/h (0 Bft) SW 225 0 min 0,0 UV-I 10,1 C 12,0 C 0,0 km/h (0 Bft)
12.09.2012 07:25 11,7 C 22,1 C 12,7 C 12,0 C 12,0 C 0,3 C 90 % 96 % 8 % 1010,6 hPa 0,0 l/m 0,3 km/h (0 Bft) O-NO 67 0 min 0,0 UV-I 10,1 C 12,0 C 0,0 km/h (0 Bft)
12.09.2012 07:30 11,6 C 22,1 C 12,7 C 12,0 C 12,0 C 0,4 C 90 % 96 % 11 % 1010,6 hPa 0,0 l/m 0,3 km/h (0 Bft) W-SW 247 0 min 0,0 UV-I 10,0 C 12,0 C 0,0 km/h (0 Bft)
12.09.2012 07:35 11,7 C 22,1 C 12,6 C 11,9 C 11,9 C 0,2 C 90 % 96 % 5 % 1010,6 hPa 0,0 l/m 0,2 km/h (0 Bft) N-NW 337 0 min 0,0 UV-I 10,1 C 11,9 C 0,0 km/h (0 Bft)
12.09.2012 07:40 11,6 C 22,1 C 12,7 C 11,9 C 11,9 C 0,3 C 90 % 96 % 8 % 1010,6 hPa 0,0 l/m 0,3 km/h (0 Bft) SW 225 0 min 0,0 UV-I 10,0 C 11,9 C 3,2 km/h (1 Bft)
12.09.2012 07:45 11,5 C 22,0 C 12,6 C 11,8 C 11,8 C 0,3 C 90 % 96 % 8 % 1010,5 hPa 0,0 l/m 1,0 km/h (0 Bft) SW 225 0 min 0,0 UV-I 9,9 C 11,8 C 0,0 km/h (0 Bft)
12.09.2012 07:50 11,4 C 22,0 C 12,5 C 11,8 C 11,8 C 0,4 C 90 % 96 % 11 % 1010,5 hPa 0,0 l/m 1,6 km/h (1 Bft) SW 225 0 min 0,0 UV-I 9,8 C 11,8 C 0,0 km/h (0 Bft)
12.09.2012 07:55 11,5 C 22,0 C 12,4 C 11,8 C 11,8 C 0,3 C 90 % 96 % 8 % 1010,5 hPa 0,7 l/m 0,6 km/h (0 Bft) W-SW 247 0 min 0,0 UV-I 9,9 C 11,8 C 0,0 km/h (0 Bft)
12.09.2012 08:00 11,4 C 22,0 C 12,5 C 11,9 C 11,9 C 0,5 C 90 % 96 % 13 % 1010,5 hPa 0,0 l/m 0,0 km/h (0 Bft) W 270 0 min 0,0 UV-I 9,8 C 11,9 C 0,0 km/h (0 Bft)
12.09.2012 08:05 11,5 C 22,0 C 12,5 C 12,0 C 12,0 C 0,5 C 90 % 96 % 13 % 1010,6 hPa 0,0 l/m 0,2 km/h (0 Bft) W-SW 247 0 min 0,0 UV-I 9,9 C 12,0 C 0,0 km/h (0 Bft)
12.09.2012 08:10 11,5 C 22,0 C 12,6 C 12,1 C 12,1 C 0,6 C 90 % 96 % 16 % 1010,6 hPa 0,0 l/m 0,5 km/h (0 Bft) W-SW 247 0 min 0,0 UV-I 9,9 C 12,1 C 0,0 km/h (0 Bft)
12.09.2012 08:15 11,6 C 22,0 C 12,7 C 12,1 C 12,1 C 0,5 C 90 % 96 % 13 % 1010,6 hPa 0,0 l/m 0,6 km/h (0 Bft) S-SW 202 0 min 0,0 UV-I 10,0 C 12,1 C 3,5 km/h (1 Bft)
12.09.2012 08:20 11,6 C 22,0 C 12,6 C 12,1 C 12,1 C 0,5 C 91 % 96 % 13 % 1010,6 hPa 0,0 l/m 1,0 km/h (0 Bft) S-SW 202 0 min 0,0 UV-I 10,2 C 12,1 C 0,0 km/h (0 Bft)
12.09.2012 08:25 11,6 C 22,0 C 12,7 C 12,1 C 12,1 C 0,5 C 91 % 96 % 13 % 1010,7 hPa 0,0 l/m 0,8 km/h (0 Bft) SO 135 0 min 0,0 UV-I 10,2 C 12,1 C 0,0 km/h (0 Bft)
12.09.2012 08:30 11,6 C 22,0 C 12,7 C 12,1 C 12,1 C 0,5 C 91 % 96 % 13 % 1010,7 hPa 0,0 l/m 0,2 km/h (0 Bft) N-NO 22 0 min 0,0 UV-I 10,2 C 12,1 C 0,0 km/h (0 Bft)
12.09.2012 08:35 11,6 C 22,0 C 12,7 C 12,1 C 12,1 C 0,5 C 91 % 96 % 13 % 1010,7 hPa 0,0 l/m 0,0 km/h (0 Bft) S-SW 202 0 min 0,0 UV-I 10,2 C 12,1 C 0,0 km/h (0 Bft)
12.09.2012 08:40 11,6 C 22,0 C 12,6 C 12,1 C 12,1 C 0,5 C 91 % 96 % 13 % 1010,7 hPa 0,0 l/m 0,0 km/h (0 Bft) S 180 0 min 0,0 UV-I 10,2 C 12,1 C 0,0 km/h (0 Bft)
12.09.2012 08:45 11,7 C 22,0 C 12,7 C 12,0 C 12,0 C 0,3 C 91 % 96 % 8 % 1010,6 hPa 0,0 l/m 0,0 km/h (0 Bft) W-SW 247 0 min 0,0 UV-I 10,3 C 12,0 C 0,0 km/h (0 Bft)
12.09.2012 08:50 11,7 C 22,0 C 12,7 C 12,1 C 12,1 C 0,4 C 91 % 96 % 11 % 1010,6 hPa 0,0 l/m 0,0 km/h (0 Bft) S-SW 202 0 min 0,0 UV-I 10,3 C 12,1 C 0,0 km/h (0 Bft)
12.09.2012 08:55 11,6 C 22,0 C 12,7 C 12,1 C 12,1 C 0,5 C 91 % 96 % 13 % 1010,6 hPa 0,0 l/m 0,2 km/h (0 Bft) SO 135 0 min 0,0 UV-I 10,2 C 12,1 C 0,0 km/h (0 Bft)
12.09.2012 09:00 11,6 C 22,0 C 12,7 C 12,1 C 12,1 C 0,5 C 91 % 96 % 13 % 1010,6 hPa 0,0 l/m 0,2 km/h (0 Bft) S 180 0 min 0,0 UV-I 10,2 C 12,1 C 0,0 km/h (0 Bft)
12.09.2012 09:05 11,6 C 22,0 C 12,7 C 12,1 C 12,1 C 0,5 C 91 % 96 % 13 % 1011,0 hPa 0,0 l/m 0,5 km/h (0 Bft) NO 45 0 min 0,0 UV-I 10,2 C 12,1 C 3,7 km/h (1 Bft)
12.09.2012 09:10 11,6 C 21,8 C 12,7 C 12,1 C 12,1 C 0,5 C 91 % 96 % 13 % 1011,0 hPa 0,0 l/m 1,0 km/h (0 Bft) W-NW 292 0 min 0,0 UV-I 10,2 C 12,1 C 3,2 km/h (1 Bft)
12.09.2012 09:15 11,7 C 21,8 C 12,7 C 12,1 C 12,1 C 0,4 C 91 % 96 % 11 % 1011,0 hPa 0,7 l/m 1,6 km/h (1 Bft) SW 225 0 min 0,0 UV-I 10,3 C 12,1 C 4,2 km/h (1 Bft)
12.09.2012 09:20 11,7 C 21,8 C 12,7 C 12,1 C 12,1 C 0,4 C 91 % 96 % 11 % 1011,0 hPa 0,0 l/m 2,1 km/h (1 Bft) S 180 0 min 0,0 UV-I 10,3 C 12,1 C 2,9 km/h (1 Bft)
12.09.2012 09:25 11,6 C 21,8 C 12,7 C 12,2 C 12,2 C 0,6 C 91 % 96 % 16 % 1011,1 hPa 0,0 l/m 2,4 km/h (1 Bft) SW 225 0 min 0,0 UV-I 10,2 C 12,2 C 4,2 km/h (1 Bft)
12.09.2012 09:30 11,7 C 21,8 C 12,8 C 12,2 C 12,2 C 0,5 C 91 % 96 % 13 % 1011,1 hPa 0,0 l/m 2,3 km/h (1 Bft) W-SW 247 0 min 0,0 UV-I 10,3 C 12,2 C 3,4 km/h (1 Bft)
12.09.2012 09:35 11,6 C 21,7 C 12,8 C 12,3 C 12,3 C 0,7 C 91 % 96 % 18 % 1011,1 hPa 0,0 l/m 1,4 km/h (1 Bft) NO 45 0 min 0,0 UV-I 10,2 C 12,3 C 0,0 km/h (0 Bft)
12.09.2012 09:40 11,6 C 21,7 C 12,6 C 12,4 C 12,4 C 0,8 C 91 % 96 % 21 % 1011,1 hPa 0,0 l/m 0,3 km/h (0 Bft) NO 45 0 min 0,0 UV-I 10,2 C 12,4 C 0,0 km/h (0 Bft)
12.09.2012 09:45 11,7 C 21,7 C 12,7 C 12,4 C 12,4 C 0,7 C 91 % 96 % 18 % 1011,0 hPa 0,0 l/m 0,0 km/h (0 Bft) N-NO 22 0 min 0,0 UV-I 10,3 C 12,4 C 0,0 km/h (0 Bft)
12.09.2012 09:50 11,6 C 21,7 C 12,7 C 12,4 C 12,4 C 0,8 C 91 % 96 % 21 % 1011,0 hPa 0,0 l/m 0,0 km/h (0 Bft) O-SO 112 0 min 0,0 UV-I 10,2 C 12,4 C 0,0 km/h (0 Bft)
12.09.2012 09:55 11,6 C 21,7 C 12,4 C 12,4 C 12,4 C 0,8 C 91 % 96 % 21 % 1011,0 hPa 0,0 l/m 0,2 km/h (0 Bft) O-SO 112 0 min 0,0 UV-I 10,2 C 12,4 C 0,0 km/h (0 Bft)
12.09.2012 10:00 11,6 C 21,7 C 12,4 C 12,3 C 12,3 C 0,7 C 91 % 96 % 18 % 1011,0 hPa 0,0 l/m 0,2 km/h (0 Bft) SW 225 0 min 0,0 UV-I 10,2 C 12,3 C 0,0 km/h (0 Bft)
12.09.2012 10:05 11,6 C 21,7 C 12,4 C 12,2 C 12,2 C 0,6 C 91 % 96 % 16 % 1011,1 hPa 0,0 l/m 0,0 km/h (0 Bft) O-SO 112 0 min 0,0 UV-I 10,2 C 12,2 C 0,0 km/h (0 Bft)
12.09.2012 10:10 11,5 C 21,7 C 12,4 C 12,2 C 12,2 C 0,7 C 91 % 96 % 18 % 1011,1 hPa 0,0 l/m 0,0 km/h (0 Bft) N-NW 337 0 min 0,0 UV-I 10,1 C 12,2 C 0,0 km/h (0 Bft)
12.09.2012 10:15 11,5 C 21,7 C 12,3 C 12,1 C 12,1 C 0,6 C 91 % 96 % 16 % 1011,1 hPa 0,0 l/m 0,2 km/h (0 Bft) O-NO 67 0 min 0,0 UV-I 10,1 C 12,1 C 0,0 km/h (0 Bft)
12.09.2012 10:20 11,6 C 21,7 C 12,5 C 12,2 C 12,2 C 0,6 C 91 % 96 % 16 % 1011,1 hPa 0,0 l/m 0,2 km/h (0 Bft) NO 45 0 min 0,0 UV-I 10,2 C 12,2 C 0,0 km/h (0 Bft)
12.09.2012 10:25 11,6 C 21,7 C 12,4 C 12,2 C 12,2 C 0,6 C 91 % 96 % 16 % 1011,1 hPa 0,0 l/m 0,0 km/h (0 Bft) N-NW 337 0 min 0,0 UV-I 10,2 C 12,2 C 0,0 km/h (0 Bft)
12.09.2012 10:30 11,6 C 21,7 C 12,4 C 12,2 C 12,2 C 0,6 C 91 % 96 % 16 % 1011,1 hPa 0,0 l/m 0,0 km/h (0 Bft) W-SW 247 0 min 0,0 UV-I 10,2 C 12,2 C 0,0 km/h (0 Bft)
12.09.2012 10:35 11,6 C 21,7 C 12,3 C 12,1 C 12,1 C 0,5 C 91 % 96 % 13 % 1011,1 hPa 0,0 l/m 0,3 km/h (0 Bft) W-SW 247 0 min 0,0 UV-I 10,2 C 12,1 C 1,9 km/h (1 Bft)
12.09.2012 10:40 11,5 C 21,7 C 12,4 C 12,1 C 12,1 C 0,6 C 91 % 96 % 16 % 1011,1 hPa 0,0 l/m 0,3 km/h (0 Bft) W-NW 292 0 min 0,0 UV-I 10,1 C 12,1 C 0,0 km/h (0 Bft)
12.09.2012 10:45 11,5 C 21,7 C 12,4 C 12,1 C 12,1 C 0,6 C 91 % 96 % 16 % 1011,3 hPa 0,0 l/m 0,3 km/h (0 Bft) W 270 0 min 0,0 UV-I 10,1 C 12,1 C 0,0 km/h (0 Bft)
12.09.2012 10:50 11,7 C 21,7 C 12,5 C 12,2 C 12,2 C 0,5 C 91 % 96 % 13 % 1011,3 hPa 0,0 l/m 0,2 km/h (0 Bft) W 270 0 min 0,0 UV-I 10,3 C 12,2 C 1,8 km/h (1 Bft)
12.09.2012 10:55 11,7 C 21,7 C 12,7 C 12,5 C 12,5 C 0,8 C 91 % 96 % 21 % 1011,3 hPa 0,0 l/m 0,2 km/h (0 Bft) O-NO 67 0 min 0,0 UV-I 10,3 C 12,5 C 0,0 km/h (0 Bft)
12.09.2012 11:00 11,7 C 21,7 C 12,6 C 12,6 C 12,6 C 0,9 C 91 % 96 % 24 % 1011,3 hPa 0,0 l/m 0,2 km/h (0 Bft) S-SO 157 0 min 0,2 UV-I 10,3 C 12,6 C 0,0 km/h (0 Bft)
12.09.2012 11:05 11,7 C 21,7 C 12,6 C 12,6 C 12,6 C 0,9 C 91 % 96 % 24 % 1011,2 hPa 0,0 l/m 0,3 km/h (0 Bft) W-SW 247 0 min 0,1 UV-I 10,3 C 12,6 C 1,6 km/h (1 Bft)
12.09.2012 11:10 11,7 C 21,7 C 12,7 C 12,5 C 12,5 C 0,8 C 91 % 96 % 21 % 1011,2 hPa 0,0 l/m 0,5 km/h (0 Bft) W-SW 247 0 min 0,0 UV-I 10,3 C 12,5 C 1,9 km/h (1 Bft)
12.09.2012 11:15 11,6 C 21,7 C 12,7 C 12,4 C 12,4 C 0,8 C 90 % 96 % 21 % 1011,2 hPa 0,0 l/m 0,6 km/h (0 Bft) W-SW 247 0 min 0,0 UV-I 10,0 C 12,4 C 0,0 km/h (0 Bft)
12.09.2012 11:20 11,6 C 21,7 C 12,7 C 12,3 C 12,3 C 0,7 C 90 % 96 % 18 % 1011,2 hPa 0,0 l/m 0,5 km/h (0 Bft) S 180 0 min 0,0 UV-I 10,0 C 12,3 C 0,0 km/h (0 Bft)
12.09.2012 11:25 11,6 C 21,7 C 12,7 C 12,3 C 12,3 C 0,7 C 90 % 96 % 18 % 1011,3 hPa 0,0 l/m 0,0 km/h (0 Bft) W 270 0 min 0,0 UV-I 10,0 C 12,3 C 1,8 km/h (1 Bft)
12.09.2012 11:30 11,7 C 21,7 C 12,7 C 12,3 C 12,3 C 0,6 C 90 % 96 % 16 % 1011,3 hPa 0,0 l/m 0,0 km/h (0 Bft) S-SW 202 0 min 0,0 UV-I 10,1 C 12,3 C 0,0 km/h (0 Bft)
12.09.2012 11:35 11,7 C 21,7 C 12,7 C 12,4 C 12,4 C 0,7 C 90 % 96 % 18 % 1011,3 hPa 0,0 l/m 0,0 km/h (0 Bft) O-NO 67 0 min 0,0 UV-I 10,1 C 12,4 C 0,0 km/h (0 Bft)
12.09.2012 11:40 11,7 C 21,7 C 12,7 C 12,4 C 12,4 C 0,7 C 90 % 96 % 18 % 1011,3 hPa 0,0 l/m 0,0 km/h (0 Bft) NW 315 0 min 0,0 UV-I 10,1 C 12,4 C 0,0 km/h (0 Bft)
12.09.2012 11:45 11,7 C 21,7 C 12,8 C 12,6 C 12,6 C 0,9 C 90 % 96 % 24 % 1011,6 hPa 0,0 l/m 0,0 km/h (0 Bft) S 180 0 min 0,0 UV-I 10,1 C 12,6 C 0,0 km/h (0 Bft)
12.09.2012 11:50 11,8 C 21,7 C 12,8 C 12,6 C 12,6 C 0,8 C 91 % 96 % 21 % 1011,6 hPa 0,0 l/m 0,2 km/h (0 Bft) W-SW 247 0 min 0,1 UV-I 10,4 C 12,6 C 1,9 km/h (1 Bft)
12.09.2012 11:55 11,9 C 21,7 C 12,8 C 13,0 C 13,0 C 1,1 C 91 % 96 % 29 % 1011,6 hPa 0,0 l/m 0,2 km/h (0 Bft) NO 45 0 min 0,4 UV-I 10,5 C 13,0 C 0,0 km/h (0 Bft)
12.09.2012 12:00 12,0 C 21,7 C 13,1 C 13,4 C 13,4 C 1,4 C 91 % 96 % 37 % 1011,6 hPa 0,0 l/m 0,2 km/h (0 Bft) N-NO 22 0 min 0,6 UV-I 10,6 C 13,4 C 0,0 km/h (0 Bft)
12.09.2012 12:05 12,1 C 21,7 C 13,1 C 13,8 C 13,8 C 1,7 C 91 % 96 % 45 % 1011,4 hPa 0,0 l/m 0,0 km/h (0 Bft) O-NO 67 0 min 0,7 UV-I 10,7 C 13,8 C 0,0 km/h (0 Bft)
12.09.2012 12:10 12,3 C 21,7 C 12,9 C 14,3 C 14,3 C 2,0 C 91 % 96 % 53 % 1011,4 hPa 0,0 l/m 0,3 km/h (0 Bft) W-NW 292 0 min 0,7 UV-I 10,9 C 14,3 C 1,8 km/h (1 Bft)
12.09.2012 12:15 12,3 C 21,7 C 13,1 C 14,7 C 14,7 C 2,4 C 90 % 96 % 63 % 1011,4 hPa 0,0 l/m 0,5 km/h (0 Bft) NO 45 0 min 0,9 UV-I 10,7 C 14,7 C 0,0 km/h (0 Bft)
12.09.2012 12:20 12,5 C 21,7 C 13,0 C 14,9 C 14,9 C 2,4 C 90 % 96 % 63 % 1011,4 hPa 0,0 l/m 0,3 km/h (0 Bft) W-SW 247 0 min 0,7 UV-I 10,9 C 14,9 C 0,0 km/h (0 Bft)
12.09.2012 12:25 12,7 C 21,7 C 13,1 C 15,0 C 15,0 C 2,3 C 90 % 96 % 61 % 1011,2 hPa 0,0 l/m 0,2 km/h (0 Bft) O-NO 67 0 min 0,7 UV-I 11,1 C 15,0 C 0,0 km/h (0 Bft)
12.09.2012 12:30 12,8 C 21,7 C 13,2 C 15,4 C 15,4 C 2,6 C 90 % 96 % 68 % 1011,2 hPa 0,0 l/m 0,3 km/h (0 Bft) NW 315 0 min 0,7 UV-I 11,2 C 15,4 C 2,1 km/h (1 Bft)
12.09.2012 12:35 13,1 C 21,7 C 13,5 C 16,0 C 16,0 C 2,9 C 90 % 96 % 76 % 1011,2 hPa 0,0 l/m 0,3 km/h (0 Bft) N-NW 337 0 min 1,3 UV-I 11,5 C 16,0 C 3,2 km/h (1 Bft)
12.09.2012 12:41 13,0 C 21,7 C 13,7 C 16,1 C 16,1 C 3,1 C 88 % 96 % 82 % 1011,2 hPa 0,0 l/m 2,1 km/h (1 Bft) N 0 0 min 1,2 UV-I 11,1 C 16,1 C 2,4 km/h (1 Bft)
12.09.2012 12:55 13,1 C 21,7 C 13,6 C 16,2 C 16,2 C 3,1 C 85 % 96 % 82 % 1011,2 hPa 0,0 l/m 2,7 km/h (1 Bft) SW 225 0 min 1,3 UV-I 10,6 C 16,2 C 2,4 km/h (1 Bft)
12.09.2012 13:00 13,1 C 21,7 C 13,6 C 16,3 C 16,3 C 3,2 C 85 % 96 % 84 % 1011,2 hPa 0,0 l/m 2,6 km/h (1 Bft) W-SW 247 0 min 1,4 UV-I 10,6 C 16,3 C 1,6 km/h (1 Bft)
12.09.2012 13:05 13,2 C 21,7 C 13,8 C 16,8 C 16,8 C 3,6 C 85 % 96 % 95 % 1011,1 hPa 0,0 l/m 1,1 km/h (1 Bft) W-SW 247 5 min 1,4 UV-I 10,7 C 16,8 C 0,0 km/h (0 Bft)
12.09.2012 13:10 13,5 C 21,7 C 14,1 C 17,4 C 17,4 C 3,9 C 86 % 96 % 100 % 1011,1 hPa 0,0 l/m 0,8 km/h (0 Bft) W-SW 247 5 min 1,6 UV-I 11,2 C 17,4 C 1,9 km/h (1 Bft)
12.09.2012 13:15 13,7 C 21,7 C 14,3 C 18,5 C 18,5 C 4,8 C 84 % 96 % 100 % 1011,1 hPa 0,0 l/m 0,8 km/h (0 Bft) W 270 5 min 2,1 UV-I 11,0 C 18,5 C 2,4 km/h (1 Bft)
12.09.2012 13:20 13,9 C 21,7 C 14,1 C 18,6 C 18,6 C 4,7 C 83 % 96 % 100 % 1011,1 hPa 0,0 l/m 1,1 km/h (1 Bft) S 180 5 min 1,8 UV-I 11,1 C 18,6 C 1,8 km/h (1 Bft)
12.09.2012 13:25 14,1 C 21,7 C 14,0 C 18,7 C 18,7 C 4,6 C 82 % 96 % 100 % 1011,1 hPa 0,0 l/m 1,1 km/h (1 Bft) S-SW 202 5 min 1,9 UV-I 11,1 C 18,7 C 2,1 km/h (1 Bft)
12.09.2012 13:30 14,0 C 21,7 C 13,9 C 18,4 C 18,4 C 4,4 C 81 % 96 % 100 % 1011,1 hPa 0,0 l/m 1,1 km/h (1 Bft) N-NW 337 5 min 1,7 UV-I 10,8 C 18,4 C 3,4 km/h (1 Bft)
12.09.2012 13:35 14,0 C 21,7 C 14,0 C 18,0 C 18,0 C 4,0 C 79 % 95 % 100 % 1011,1 hPa 0,0 l/m 2,3 km/h (1 Bft) W-SW 247 5 min 1,7 UV-I 10,4 C 18,0 C 4,5 km/h (1 Bft)
12.09.2012 13:40 14,1 C 21,7 C 14,1 C 18,1 C 18,1 C 4,0 C 79 % 95 % 100 % 1011,1 hPa 0,0 l/m 2,1 km/h (1 Bft) W-SW 247 5 min 1,8 UV-I 10,5 C 18,1 C 2,9 km/h (1 Bft)
12.09.2012 13:45 14,2 C 21,7 C 14,0 C 18,5 C 18,5 C 4,3 C 79 % 95 % 100 % 1011,0 hPa 0,0 l/m 1,8 km/h (1 Bft) W-NW 292 5 min 1,9 UV-I 10,6 C 18,5 C 3,1 km/h (1 Bft)
12.09.2012 13:50 14,3 C 21,7 C 14,0 C 18,5 C 18,5 C 4,2 C 79 % 95 % 100 % 1011,0 hPa 0,0 l/m 1,8 km/h (1 Bft) S-SW 202 5 min 1,9 UV-I 10,7 C 18,5 C 4,5 km/h (1 Bft)
12.09.2012 13:55 14,5 C 21,7 C 14,3 C 18,7 C 18,7 C 4,2 C 78 % 95 % 100 % 1011,0 hPa 0,0 l/m 2,1 km/h (1 Bft) SO 135 5 min 1,9 UV-I 10,7 C 18,7 C 2,1 km/h (1 Bft)
12.09.2012 14:00 14,5 C 21,7 C 14,4 C 19,0 C 19,0 C 4,5 C 77 % 95 % 100 % 1011,0 hPa 0,0 l/m 2,6 km/h (1 Bft) W-SW 247 5 min 2,2 UV-I 10,5 C 19,0 C 3,1 km/h (1 Bft)
12.09.2012 14:05 14,6 C 21,7 C 14,5 C 18,9 C 18,9 C 4,3 C 77 % 95 % 100 % 1010,9 hPa 0,0 l/m 2,7 km/h (1 Bft) W-SW 247 5 min 1,9 UV-I 10,6 C 18,9 C 3,9 km/h (1 Bft)
12.09.2012 14:10 14,8 C 21,7 C 14,7 C 18,8 C 18,8 C 4,0 C 75 % 95 % 100 % 1010,9 hPa 0,0 l/m 3,2 km/h (1 Bft) SW 225 5 min 2,1 UV-I 10,4 C 18,8 C 6,6 km/h (2 Bft)
12.09.2012 14:15 14,7 C 21,7 C 14,4 C 18,5 C 18,5 C 3,8 C 75 % 94 % 100 % 1010,9 hPa 0,0 l/m 3,7 km/h (1 Bft) W-SW 247 5 min 1,9 UV-I 10,3 C 18,5 C 4,2 km/h (1 Bft)
12.09.2012 14:20 14,8 C 21,7 C 14,5 C 18,2 C 18,2 C 3,4 C 75 % 94 % 89 % 1010,9 hPa 0,0 l/m 3,4 km/h (1 Bft) W 270 5 min 1,7 UV-I 10,4 C 18,2 C 2,4 km/h (1 Bft)
12.09.2012 14:25 14,8 C 21,7 C 14,7 C 18,0 C 18,0 C 3,2 C 75 % 95 % 84 % 1011,0 hPa 0,0 l/m 2,3 km/h (1 Bft) W-SW 247 0 min 1,6 UV-I 10,4 C 18,0 C 1,8 km/h (1 Bft)
12.09.2012 14:30 14,8 C 21,7 C 14,8 C 18,1 C 18,1 C 3,3 C 75 % 95 % 87 % 1011,0 hPa 0,0 l/m 1,8 km/h (1 Bft) SW 225 5 min 1,5 UV-I 10,4 C 18,1 C 3,1 km/h (1 Bft)
12.09.2012 14:35 14,8 C 21,7 C 14,8 C 18,1 C 18,1 C 3,3 C 75 % 95 % 87 % 1011,0 hPa 0,0 l/m 1,9 km/h (1 Bft) W 270 5 min 1,5 UV-I 10,4 C 18,1 C 1,6 km/h (1 Bft)
12.09.2012 14:40 14,8 C 21,7 C 14,9 C 18,3 C 18,3 C 3,5 C 75 % 95 % 92 % 1011,0 hPa 0,0 l/m 1,8 km/h (1 Bft) W-NW 292 5 min 1,6 UV-I 10,4 C 18,3 C 2,1 km/h (1 Bft)
12.09.2012 14:45 15,1 C 21,7 C 14,9 C 18,8 C 18,8 C 3,7 C 74 % 94 % 97 % 1010,8 hPa 0,0 l/m 1,9 km/h (1 Bft) SW 225 5 min 1,9 UV-I 10,5 C 18,8 C 5,0 km/h (1 Bft)
12.09.2012 14:50 15,3 C 21,7 C 15,2 C 19,2 C 19,2 C 3,9 C 74 % 94 % 100 % 1010,8 hPa 0,0 l/m 2,4 km/h (1 Bft) S-SW 202 5 min 2,1 UV-I 10,7 C 19,2 C 3,4 km/h (1 Bft)
12.09.2012 14:55 15,5 C 21,7 C 15,1 C 19,1 C 19,1 C 3,6 C 74 % 94 % 95 % 1010,8 hPa 0,0 l/m 2,7 km/h (1 Bft) SW 225 5 min 1,8 UV-I 10,9 C 19,1 C 5,0 km/h (1 Bft)
12.09.2012 15:00 15,6 C 21,7 C 15,2 C 19,0 C 19,0 C 3,4 C 74 % 94 % 89 % 1010,8 hPa 0,0 l/m 2,4 km/h (1 Bft) W 270 5 min 1,6 UV-I 11,0 C 19,0 C 4,3 km/h (1 Bft)
12.09.2012 15:05 15,8 C 21,7 C 15,5 C 19,1 C 19,1 C 3,3 C 73 % 94 % 87 % 1010,8 hPa 0,0 l/m 2,3 km/h (1 Bft) S-SO 157 5 min 1,8 UV-I 11,0 C 19,1 C 1,8 km/h (1 Bft)
12.09.2012 15:10 16,0 C 21,7 C 15,5 C 19,8 C 19,8 C 3,8 C 73 % 94 % 100 % 1010,8 hPa 0,0 l/m 1,9 km/h (1 Bft) SO 135 5 min 2,0 UV-I 11,2 C 19,8 C 2,4 km/h (1 Bft)
12.09.2012 15:15 16,0 C 21,7 C 15,2 C 19,0 C 19,0 C 3,0 C 70 % 94 % 79 % 1010,8 hPa 0,0 l/m 2,3 km/h (1 Bft) W-SW 247 0 min 1,1 UV-I 10,5 C 19,0 C 5,6 km/h (1 Bft)
12.09.2012 15:20 15,8 C 21,7 C 15,1 C 18,0 C 18,0 C 2,2 C 71 % 94 % 58 % 1010,8 hPa 0,0 l/m 2,3 km/h (1 Bft) W-NW 292 0 min 0,4 UV-I 10,6 C 18,0 C 1,6 km/h (1 Bft)
12.09.2012 15:25 15,6 C 21,7 C 14,8 C 17,0 C 17,0 C 1,4 C 70 % 94 % 37 % 1010,6 hPa 0,0 l/m 1,4 km/h (1 Bft) O-SO 112 0 min 0,1 UV-I 10,1 C 17,0 C 3,7 km/h (1 Bft)
12.09.2012 15:30 15,5 C 21,7 C 14,8 C 16,5 C 16,5 C 1,0 C 70 % 94 % 26 % 1010,6 hPa 0,0 l/m 1,3 km/h (1 Bft) NW 315 0 min 0,0 UV-I 10,1 C 16,5 C 0,0 km/h (0 Bft)
12.09.2012 15:35 15,2 C 21,7 C 14,7 C 16,0 C 16,0 C 0,8 C 72 % 94 % 21 % 1010,6 hPa 0,0 l/m 1,0 km/h (0 Bft) O 90 0 min 0,0 UV-I 10,2 C 16,0 C 0,0 km/h (0 Bft)
12.09.2012 15:40 15,0 C 21,7 C 14,7 C 15,9 C 15,9 C 0,9 C 72 % 93 % 24 % 1010,6 hPa 0,0 l/m 0,2 km/h (0 Bft) NO 45 0 min 0,1 UV-I 10,0 C 15,9 C 0,0 km/h (0 Bft)
12.09.2012 15:45 14,9 C 21,7 C 14,8 C 16,3 C 16,3 C 1,4 C 73 % 94 % 37 % 1010,6 hPa 0,0 l/m 0,3 km/h (0 Bft) N-NW 337 0 min 0,5 UV-I 10,1 C 16,3 C 0,0 km/h (0 Bft)
12.09.2012 15:50 14,9 C 21,7 C 15,1 C 16,5 C 16,5 C 1,6 C 74 % 94 % 42 % 1010,6 hPa 0,0 l/m 0,2 km/h (0 Bft) SW 225 0 min 0,7 UV-I 10,3 C 16,5 C 0,0 km/h (0 Bft)
12.09.2012 15:55 15,1 C 21,7 C 15,0 C 16,9 C 16,9 C 1,8 C 72 % 93 % 47 % 1010,6 hPa 0,0 l/m 0,6 km/h (0 Bft) N-NW 337 0 min 0,7 UV-I 10,1 C 16,9 C 0,0 km/h (0 Bft)
12.09.2012 16:00 15,2 C 21,7 C 15,1 C 17,0 C 17,0 C 1,8 C 72 % 93 % 47 % 1010,6 hPa 0,0 l/m 0,6 km/h (0 Bft) NW 315 0 min 0,7 UV-I 10,2 C 17,0 C 0,0 km/h (0 Bft)
12.09.2012 16:05 15,3 C 21,7 C 15,1 C 17,2 C 17,2 C 1,9 C 73 % 93 % 50 % 1010,6 hPa 0,0 l/m 0,2 km/h (0 Bft) W-NW 292 0 min 0,8 UV-I 10,5 C 17,2 C 0,0 km/h (0 Bft)
12.09.2012 16:10 15,3 C 21,7 C 15,1 C 17,2 C 17,2 C 1,9 C 73 % 94 % 50 % 1010,6 hPa 0,0 l/m 0,0 km/h (0 Bft) SO 135 0 min 0,6 UV-I 10,5 C 17,2 C 0,0 km/h (0 Bft)
12.09.2012 16:15 15,2 C 21,7 C 15,1 C 16,8 C 16,8 C 1,6 C 72 % 94 % 42 % 1010,6 hPa 0,0 l/m 0,2 km/h (0 Bft) W-SW 247 0 min 0,4 UV-I 10,2 C 16,8 C 2,9 km/h (1 Bft)
12.09.2012 16:20 15,2 C 21,7 C 15,1 C 16,6 C 16,6 C 1,4 C 71 % 94 % 37 % 1010,6 hPa 0,0 l/m 0,2 km/h (0 Bft) W-SW 247 0 min 0,2 UV-I 10,0 C 16,6 C 0,0 km/h (0 Bft)
12.09.2012 16:25 15,1 C 21,7 C 14,8 C 16,3 C 16,3 C 1,2 C 71 % 93 % 32 % 1010,6 hPa 0,0 l/m 0,3 km/h (0 Bft) N-NO 22 0 min 0,2 UV-I 9,9 C 16,3 C 0,0 km/h (0 Bft)
12.09.2012 16:30 15,0 C 21,7 C 14,8 C 16,2 C 16,2 C 1,2 C 72 % 93 % 32 % 1010,6 hPa 0,0 l/m 0,2 km/h (0 Bft) O-NO 67 0 min 0,2 UV-I 10,0 C 16,2 C 0,0 km/h (0 Bft)
12.09.2012 16:35 15,0 C 21,7 C 14,7 C 15,9 C 15,9 C 0,9 C 73 % 93 % 24 % 1010,6 hPa 0,0 l/m 0,0 km/h (0 Bft) W-NW 292 0 min 0,1 UV-I 10,2 C 15,9 C 0,0 km/h (0 Bft)
12.09.2012 16:40 14,9 C 21,7 C 14,8 C 15,8 C 15,8 C 0,9 C 73 % 93 % 24 % 1010,6 hPa 0,0 l/m 0,0 km/h (0 Bft) W-NW 292 0 min 0,0 UV-I 10,1 C 15,8 C 0,0 km/h (0 Bft)
12.09.2012 16:45 14,8 C 21,7 C 14,7 C 15,6 C 15,6 C 0,8 C 74 % 93 % 21 % 1010,6 hPa 0,0 l/m 0,0 km/h (0 Bft) O-NO 67 0 min 0,0 UV-I 10,2 C 15,6 C 0,0 km/h (0 Bft)
12.09.2012 16:50 14,7 C 21,7 C 14,7 C 15,4 C 15,4 C 0,7 C 74 % 93 % 18 % 1010,6 hPa 0,0 l/m 0,0 km/h (0 Bft) O-NO 67 0 min 0,0 UV-I 10,1 C 15,4 C 0,0 km/h (0 Bft)
12.09.2012 16:55 14,5 C 21,7 C 14,6 C 15,2 C 15,2 C 0,7 C 75 % 93 % 18 % 1010,6 hPa 0,0 l/m 0,0 km/h (0 Bft) O-NO 67 0 min 0,0 UV-I 10,1 C 15,2 C 0,0 km/h (0 Bft)
12.09.2012 17:00 14,4 C 21,7 C 14,6 C 15,2 C 15,2 C 0,8 C 75 % 93 % 21 % 1010,6 hPa 0,0 l/m 0,0 km/h (0 Bft) SW 225 0 min 0,0 UV-I 10,0 C 15,2 C 0,0 km/h (0 Bft)
12.09.2012 17:05 14,5 C 21,7 C 14,7 C 15,2 C 15,2 C 0,7 C 76 % 93 % 18 % 1010,4 hPa 0,0 l/m 0,0 km/h (0 Bft) S 180 0 min 0,0 UV-I 10,3 C 15,2 C 0,0 km/h (0 Bft)
12.09.2012 17:10 14,5 C 21,7 C 14,7 C 15,2 C 15,2 C 0,7 C 75 % 93 % 18 % 1010,4 hPa 0,0 l/m 0,2 km/h (0 Bft) SW 225 0 min 0,0 UV-I 10,1 C 15,2 C 0,0 km/h (0 Bft)
12.09.2012 17:15 14,5 C 21,7 C 14,7 C 15,1 C 15,1 C 0,6 C 75 % 93 % 16 % 1010,4 hPa 0,0 l/m 1,9 km/h (1 Bft) S-SW 202 0 min 0,0 UV-I 10,1 C 15,1 C 3,7 km/h (1 Bft)
12.09.2012 17:20 14,5 C 21,7 C 14,5 C 15,0 C 15,0 C 0,5 C 74 % 93 % 13 % 1010,4 hPa 0,0 l/m 2,7 km/h (1 Bft) W-SW 247 0 min 0,0 UV-I 9,9 C 15,0 C 3,4 km/h (1 Bft)
12.09.2012 17:25 14,5 C 21,7 C 14,4 C 15,0 C 15,0 C 0,5 C 74 % 93 % 13 % 1010,6 hPa 0,0 l/m 2,9 km/h (1 Bft) SW 225 0 min 0,0 UV-I 9,9 C 15,0 C 3,1 km/h (1 Bft)
12.09.2012 17:30 14,3 C 21,7 C 14,4 C 14,9 C 14,9 C 0,6 C 74 % 93 % 16 % 1010,6 hPa 0,0 l/m 2,6 km/h (1 Bft) W 270 0 min 0,0 UV-I 9,7 C 14,9 C 0,0 km/h (0 Bft)
12.09.2012 17:35 14,3 C 21,7 C 14,4 C 14,9 C 14,9 C 0,6 C 74 % 93 % 16 % 1010,6 hPa 0,0 l/m 2,9 km/h (1 Bft) W-SW 247 0 min 0,0 UV-I 9,7 C 14,9 C 4,3 km/h (1 Bft)
12.09.2012 17:40 14,3 C 21,7 C 14,3 C 14,8 C 14,8 C 0,5 C 74 % 93 % 13 % 1010,6 hPa 0,0 l/m 3,1 km/h (1 Bft) SW 225 0 min 0,0 UV-I 9,7 C 14,8 C 4,3 km/h (1 Bft)
12.09.2012 17:45 14,3 C 21,7 C 14,2 C 14,7 C 14,7 C 0,4 C 74 % 92 % 11 % 1010,3 hPa 0,0 l/m 3,9 km/h (1 Bft) W 270 0 min 0,0 UV-I 9,7 C 14,7 C 6,6 km/h (2 Bft)
12.09.2012 17:50 14,2 C 21,7 C 14,2 C 14,7 C 14,7 C 0,5 C 74 % 93 % 13 % 1010,3 hPa 0,0 l/m 4,3 km/h (1 Bft) SW 225 0 min 0,0 UV-I 9,6 C 14,7 C 4,8 km/h (1 Bft)
12.09.2012 17:55 14,1 C 21,7 C 14,3 C 14,7 C 14,7 C 0,6 C 75 % 92 % 16 % 1010,3 hPa 0,0 l/m 5,1 km/h (1 Bft) S 180 0 min 0,0 UV-I 9,7 C 14,7 C 13,5 km/h (3 Bft)
12.09.2012 18:00 14,1 C 21,7 C 14,3 C 14,6 C 14,6 C 0,5 C 75 % 92 % 13 % 1010,3 hPa 0,0 l/m 4,7 km/h (1 Bft) SW 225 0 min 0,0 UV-I 9,7 C 14,6 C 5,6 km/h (1 Bft)
12.09.2012 18:05 14,0 C 21,7 C 14,3 C 14,6 C 14,6 C 0,6 C 75 % 92 % 16 % 1010,4 hPa 0,0 l/m 3,5 km/h (1 Bft) W-SW 247 0 min 0,0 UV-I 9,6 C 14,6 C 3,1 km/h (1 Bft)
12.09.2012 18:10 14,0 C 20,8 C 14,3 C 14,5 C 14,5 C 0,5 C 76 % 92 % 13 % 1010,4 hPa 0,0 l/m 2,7 km/h (1 Bft) N-NO 22 0 min 0,0 UV-I 9,8 C 14,5 C 3,1 km/h (1 Bft)
12.09.2012 18:15 13,9 C 20,8 C 14,1 C 14,3 C 14,3 C 0,4 C 76 % 92 % 11 % 1010,4 hPa 0,0 l/m 2,3 km/h (1 Bft) N-NW 337 0 min 0,0 UV-I 9,7 C 14,3 C 4,8 km/h (1 Bft)
12.09.2012 18:20 13,9 C 20,8 C 14,0 C 14,1 C 14,1 C 0,2 C 76 % 92 % 5 % 1010,4 hPa 0,0 l/m 3,4 km/h (1 Bft) SW 225 0 min 0,0 UV-I 9,7 C 14,1 C 9,5 km/h (2 Bft)
12.09.2012 18:25 13,7 C 20,8 C 14,0 C 13,9 C 13,9 C 0,2 C 76 % 92 % 5 % 1010,7 hPa 0,0 l/m 5,1 km/h (1 Bft) W-SW 247 0 min 0,0 UV-I 9,5 C 13,9 C 14,5 km/h (3 Bft)
12.09.2012 18:30 13,7 C 20,8 C 13,9 C 13,8 C 13,8 C 0,1 C 74 % 92 % 3 % 1010,7 hPa 0,0 l/m 6,0 km/h (2 Bft) S-SW 202 0 min 0,0 UV-I 9,2 C 13,8 C 10,0 km/h (2 Bft)
12.09.2012 18:35 13,4 C 20,7 C 13,6 C 13,3 C 13,1 C 0,0 C 72 % 91 % 0 % 1010,7 hPa 0,0 l/m 7,4 km/h (2 Bft) W-SW 247 0 min 0,0 UV-I 8,5 C 13,1 C 5,8 km/h (2 Bft)
12.09.2012 18:41 13,2 C 20,8 C 13,5 C 13,2 C 13,1 C 0,0 C 73 % 91 % 0 % 1010,7 hPa 0,0 l/m 6,1 km/h (2 Bft) N 0 0 min 0,0 UV-I 8,5 C 13,1 C 3,2 km/h (1 Bft)
12.09.2012 18:55 12,8 C 20,8 C 13,0 C 12,8 C 12,7 C 0,0 C 73 % 91 % 0 % 1011,1 hPa 0,0 l/m 5,3 km/h (1 Bft) S 180 0 min 0,0 UV-I 8,1 C 12,7 C 6,4 km/h (2 Bft)
12.09.2012 19:00 12,7 C 20,8 C 13,1 C 12,7 C 12,6 C 0,0 C 74 % 91 % 0 % 1011,1 hPa 0,0 l/m 4,5 km/h (1 Bft) W-SW 247 0 min 0,0 UV-I 8,2 C 12,6 C 4,0 km/h (1 Bft)
12.09.2012 19:05 12,5 C 20,8 C 12,8 C 12,5 C 12,5 C 0,0 C 75 % 91 % 0 % 1011,3 hPa 0,0 l/m 3,9 km/h (1 Bft) W-NW 292 0 min 0,0 UV-I 8,2 C 12,5 C 3,9 km/h (1 Bft)
12.09.2012 19:10 12,4 C 20,8 C 12,8 C 12,4 C 12,4 C 0,0 C 75 % 91 % 0 % 1011,3 hPa 0,0 l/m 3,4 km/h (1 Bft) W-SW 247 0 min 0,0 UV-I 8,1 C 12,4 C 4,2 km/h (1 Bft)
12.09.2012 19:15 12,4 C 20,8 C 12,8 C 12,4 C 12,4 C 0,0 C 76 % 92 % 0 % 1011,3 hPa 0,0 l/m 2,4 km/h (1 Bft) SW 225 0 min 0,0 UV-I 8,3 C 12,4 C 3,4 km/h (1 Bft)
12.09.2012 19:20 12,3 C 20,8 C 12,9 C 12,3 C 12,3 C 0,0 C 76 % 92 % 0 % 1011,3 hPa 0,0 l/m 2,6 km/h (1 Bft) SW 225 0 min 0,0 UV-I 8,2 C 12,3 C 3,7 km/h (1 Bft)
12.09.2012 19:25 12,1 C 20,8 C 12,9 C 12,2 C 12,2 C 0,1 C 77 % 92 % 0 % 1011,5 hPa 0,0 l/m 2,6 km/h (1 Bft) W-SW 247 0 min 0,0 UV-I 8,2 C 12,2 C 5,3 km/h (1 Bft)
12.09.2012 19:30 12,1 C 20,8 C 12,7 C 12,1 C 12,1 C 0,0 C 77 % 92 % 0 % 1011,5 hPa 0,0 l/m 2,4 km/h (1 Bft) SW 225 0 min 0,0 UV-I 8,2 C 12,1 C 1,8 km/h (1 Bft)
12.09.2012 19:35 12,0 C 20,8 C 12,6 C 12,0 C 12,0 C 0,0 C 77 % 92 % 0 % 1011,5 hPa 0,0 l/m 3,2 km/h (1 Bft) W-SW 247 0 min 0,0 UV-I 8,1 C 12,0 C 5,6 km/h (1 Bft)
12.09.2012 19:40 11,9 C 20,8 C 12,5 C 12,0 C 12,0 C 0,1 C 77 % 92 % 0 % 1011,5 hPa 0,0 l/m 3,4 km/h (1 Bft) W-SW 247 0 min 0,0 UV-I 8,0 C 12,0 C 2,9 km/h (1 Bft)
12.09.2012 19:45 11,8 C 20,8 C 12,5 C 11,9 C 11,9 C 0,1 C 78 % 92 % 0 % 1011,5 hPa 0,0 l/m 3,5 km/h (1 Bft) W-SW 247 0 min 0,0 UV-I 8,1 C 11,9 C 4,3 km/h (1 Bft)
12.09.2012 19:50 11,9 C 20,8 C 12,4 C 11,9 C 11,8 C 0,0 C 78 % 92 % 0 % 1011,5 hPa 0,0 l/m 3,2 km/h (1 Bft) S-SW 202 0 min 0,0 UV-I 8,2 C 11,8 C 2,9 km/h (1 Bft)
12.09.2012 19:55 11,6 C 20,8 C 12,4 C 11,7 C 11,7 C 0,1 C 78 % 92 % 0 % 1011,5 hPa 0,0 l/m 2,9 km/h (1 Bft) SW 225 0 min 0,0 UV-I 7,9 C 11,7 C 4,5 km/h (1 Bft)
12.09.2012 20:00 11,6 C 20,8 C 12,4 C 11,7 C 11,7 C 0,1 C 78 % 92 % 0 % 1011,5 hPa 0,0 l/m 2,9 km/h (1 Bft) SW 225 0 min 0,0 UV-I 7,9 C 11,7 C 4,0 km/h (1 Bft)
12.09.2012 20:05 11,6 C 20,8 C 12,3 C 11,7 C 11,7 C 0,1 C 78 % 92 % 0 % 1011,6 hPa 0,0 l/m 1,9 km/h (1 Bft) S-SO 157 0 min 0,0 UV-I 7,9 C 11,7 C 0,0 km/h (0 Bft)
12.09.2012 20:10 11,5 C 20,8 C 12,3 C 11,6 C 11,6 C 0,1 C 78 % 92 % 0 % 1011,6 hPa 0,0 l/m 1,0 km/h (0 Bft) W 270 0 min 0,0 UV-I 7,8 C 11,6 C 0,0 km/h (0 Bft)
12.09.2012 20:15 11,4 C 20,8 C 12,2 C 11,5 C 11,5 C 0,1 C 78 % 92 % 0 % 1011,6 hPa 0,0 l/m 0,6 km/h (0 Bft) SW 225 0 min 0,0 UV-I 7,7 C 11,5 C 2,6 km/h (1 Bft)
12.09.2012 20:20 11,5 C 20,7 C 12,2 C 11,5 C 11,5 C 0,0 C 79 % 92 % 0 % 1011,6 hPa 0,0 l/m 0,5 km/h (0 Bft) W-SW 247 0 min 0,0 UV-I 8,0 C 11,5 C 0,0 km/h (0 Bft)
12.09.2012 20:25 11,3 C 20,7 C 12,2 C 11,5 C 11,5 C 0,2 C 79 % 92 % 0 % 1012,1 hPa 0,0 l/m 0,8 km/h (0 Bft) S 180 0 min 0,0 UV-I 7,8 C 11,5 C 2,3 km/h (1 Bft)
12.09.2012 20:30 11,3 C 20,7 C 12,3 C 11,5 C 11,5 C 0,2 C 79 % 92 % 0 % 1012,1 hPa 0,0 l/m 1,6 km/h (1 Bft) W-SW 247 0 min 0,0 UV-I 7,8 C 11,5 C 5,1 km/h (1 Bft)
12.09.2012 20:35 11,2 C 20,7 C 12,3 C 11,5 C 11,5 C 0,3 C 80 % 92 % 0 % 1012,1 hPa 0,0 l/m 2,1 km/h (1 Bft) SW 225 0 min 0,0 UV-I 7,9 C 11,5 C 0,0 km/h (0 Bft)
12.09.2012 20:40 11,3 C 20,7 C 12,2 C 11,5 C 11,5 C 0,2 C 80 % 92 % 0 % 1012,1 hPa 0,0 l/m 1,1 km/h (1 Bft) SW 225 0 min 0,0 UV-I 8,0 C 11,5 C 0,0 km/h (0 Bft)
12.09.2012 20:45 11,1 C 20,7 C 12,2 C 11,5 C 11,5 C 0,4 C 80 % 92 % 0 % 1012,0 hPa 0,0 l/m 0,3 km/h (0 Bft) W-SW 247 0 min 0,0 UV-I 7,8 C 11,5 C 2,4 km/h (1 Bft)
12.09.2012 20:50 11,1 C 20,7 C 12,2 C 11,4 C 11,4 C 0,3 C 80 % 92 % 0 % 1012,0 hPa 0,0 l/m 0,8 km/h (0 Bft) SW 225 0 min 0,0 UV-I 7,8 C 11,4 C 2,9 km/h (1 Bft)
12.09.2012 20:55 11,0 C 20,7 C 12,2 C 11,2 C 11,2 C 0,2 C 81 % 92 % 0 % 1012,0 hPa 0,0 l/m 1,8 km/h (1 Bft) SW 225 0 min 0,0 UV-I 7,9 C 11,2 C 3,9 km/h (1 Bft)
12.09.2012 21:00 11,1 C 20,7 C 12,1 C 11,1 C 11,1 C 0,0 C 81 % 92 % 0 % 1012,0 hPa 0,0 l/m 2,4 km/h (1 Bft) SW 225 0 min 0,0 UV-I 8,0 C 11,1 C 6,4 km/h (2 Bft)
12.09.2012 21:05 10,9 C 20,7 C 12,1 C 11,1 C 11,1 C 0,2 C 81 % 92 % 0 % 1012,4 hPa 0,0 l/m 3,1 km/h (1 Bft) W-SW 247 0 min 0,0 UV-I 7,8 C 11,1 C 2,1 km/h (1 Bft)
12.09.2012 21:10 10,8 C 20,7 C 12,1 C 11,0 C 11,0 C 0,2 C 81 % 92 % 0 % 1012,4 hPa 0,0 l/m 2,6 km/h (1 Bft) SW 225 0 min 0,0 UV-I 7,7 C 11,0 C 3,1 km/h (1 Bft)
12.09.2012 21:15 10,9 C 20,8 C 12,0 C 10,9 C 10,8 C 0,0 C 82 % 92 % 0 % 1012,4 hPa 0,0 l/m 1,1 km/h (1 Bft) W 270 0 min 0,0 UV-I 7,9 C 10,8 C 2,1 km/h (1 Bft)
12.09.2012 21:20 10,8 C 20,8 C 12,1 C 10,8 C 10,8 C 0,0 C 82 % 92 % 0 % 1012,4 hPa 0,0 l/m 0,8 km/h (0 Bft) S 180 0 min 0,0 UV-I 7,9 C 10,8 C 0,0 km/h (0 Bft)
12.09.2012 21:25 10,7 C 20,8 C 12,0 C 10,7 C 10,7 C 0,0 C 82 % 92 % 0 % 1012,3 hPa 0,0 l/m 1,1 km/h (1 Bft) S-SW 202 0 min 0,0 UV-I 7,8 C 10,7 C 1,8 km/h (1 Bft)
12.09.2012 21:30 10,6 C 20,8 C 12,0 C 10,7 C 10,7 C 0,1 C 83 % 92 % 0 % 1012,3 hPa 0,0 l/m 1,4 km/h (1 Bft) S-SW 202 0 min 0,0 UV-I 7,8 C 10,7 C 2,4 km/h (1 Bft)
12.09.2012 21:35 10,6 C 20,7 C 12,1 C 10,7 C 10,7 C 0,1 C 83 % 93 % 0 % 1012,3 hPa 0,0 l/m 1,8 km/h (1 Bft) W-SW 247 0 min 0,0 UV-I 7,8 C 10,7 C 2,7 km/h (1 Bft)
12.09.2012 21:40 10,6 C 20,7 C 12,0 C 10,7 C 10,7 C 0,1 C 83 % 93 % 0 % 1012,3 hPa 0,0 l/m 1,4 km/h (1 Bft) W-SW 247 0 min 0,0 UV-I 7,8 C 10,7 C 0,0 km/h (0 Bft)
12.09.2012 21:45 10,5 C 20,7 C 12,0 C 10,7 C 10,7 C 0,2 C 83 % 93 % 0 % 1012,2 hPa 0,0 l/m 1,3 km/h (1 Bft) W-SW 247 0 min 0,0 UV-I 7,7 C 10,7 C 5,0 km/h (1 Bft)
12.09.2012 21:50 10,4 C 20,7 C 12,0 C 10,6 C 10,6 C 0,2 C 84 % 93 % 0 % 1012,2 hPa 0,0 l/m 1,6 km/h (1 Bft) S-SW 202 0 min 0,0 UV-I 7,8 C 10,6 C 3,1 km/h (1 Bft)
12.09.2012 21:55 10,4 C 20,7 C 11,9 C 10,7 C 10,7 C 0,3 C 84 % 93 % 0 % 1012,2 hPa 0,0 l/m 1,9 km/h (1 Bft) SW 225 0 min 0,0 UV-I 7,8 C 10,7 C 3,7 km/h (1 Bft)
12.09.2012 22:00 10,4 C 20,7 C 11,9 C 10,7 C 10,7 C 0,3 C 84 % 93 % 0 % 1012,2 hPa 0,0 l/m 2,3 km/h (1 Bft) W-SW 247 0 min 0,0 UV-I 7,8 C 10,7 C 5,3 km/h (1 Bft)
12.09.2012 22:05 10,4 C 20,7 C 11,9 C 10,7 C 10,7 C 0,3 C 85 % 93 % 0 % 1012,2 hPa 0,0 l/m 2,3 km/h (1 Bft) S-SW 202 0 min 0,0 UV-I 8,0 C 10,7 C 1,8 km/h (1 Bft)
12.09.2012 22:10 10,4 C 20,7 C 11,9 C 10,7 C 10,7 C 0,3 C 85 % 93 % 0 % 1012,2 hPa 0,0 l/m 2,3 km/h (1 Bft) W-SW 247 0 min 0,0 UV-I 8,0 C 10,7 C 3,4 km/h (1 Bft)
12.09.2012 22:15 10,4 C 20,7 C 11,9 C 10,6 C 10,6 C 0,2 C 85 % 93 % 0 % 1012,2 hPa 0,0 l/m 2,3 km/h (1 Bft) W-SW 247 0 min 0,0 UV-I 8,0 C 10,6 C 5,3 km/h (1 Bft)
12.09.2012 22:20 10,4 C 20,7 C 11,8 C 10,7 C 10,7 C 0,3 C 86 % 93 % 0 % 1012,2 hPa 0,0 l/m 2,7 km/h (1 Bft) W-NW 292 0 min 0,0 UV-I 8,2 C 10,7 C 3,5 km/h (1 Bft)
12.09.2012 22:25 10,3 C 20,7 C 11,8 C 10,7 C 10,7 C 0,4 C 86 % 93 % 0 % 1012,4 hPa 0,0 l/m 2,9 km/h (1 Bft) W 270 0 min 0,0 UV-I 8,1 C 10,7 C 3,5 km/h (1 Bft)
12.09.2012 22:30 10,3 C 20,7 C 11,8 C 10,7 C 10,7 C 0,4 C 86 % 93 % 0 % 1012,4 hPa 0,0 l/m 2,4 km/h (1 Bft) W-SW 247 0 min 0,0 UV-I 8,1 C 10,7 C 2,4 km/h (1 Bft)
12.09.2012 22:35 10,3 C 20,8 C 11,9 C 10,6 C 10,6 C 0,3 C 86 % 93 % 0 % 1012,4 hPa 0,0 l/m 1,9 km/h (1 Bft) W-SW 247 0 min 0,0 UV-I 8,1 C 10,6 C 2,6 km/h (1 Bft)
12.09.2012 22:40 10,3 C 20,8 C 11,8 C 10,6 C 10,6 C 0,3 C 86 % 93 % 0 % 1012,4 hPa 0,0 l/m 1,6 km/h (1 Bft) W-SW 247 0 min 0,0 UV-I 8,1 C 10,6 C 2,3 km/h (1 Bft)
12.09.2012 22:42 10,3 C 20,8 C 11,8 C 10,6 C 10,6 C 0,3 C 86 % 93 % 0 % 1011,9 hPa 0,0 l/m 1,6 km/h (1 Bft) W-SW 247 0 min 0,0 UV-I 8,1 C 10,6 C 2,9 km/h (1 Bft)
12.09.2012 22:47 10,3 C 20,8 C 11,8 C 10,6 C 10,6 C 0,3 C 86 % 93 % 0 % 1011,9 hPa 0,0 l/m 1,9 km/h (1 Bft) S 180 0 min 0,0 UV-I 8,1 C 10,6 C 2,1 km/h (1 Bft)
12.09.2012 22:52 10,3 C 20,8 C 11,8 C 10,7 C 10,7 C 0,4 C 86 % 93 % 0 % 1011,9 hPa 0,0 l/m 1,8 km/h (1 Bft) W-SW 247 0 min 0,0 UV-I 8,1 C 10,7 C 2,3 km/h (1 Bft)
12.09.2012 22:57 10,3 C 20,8 C 11,9 C 10,6 C 10,6 C 0,3 C 86 % 93 % 0 % 1011,9 hPa 0,0 l/m 1,9 km/h (1 Bft) W 270 0 min 0,0 UV-I 8,1 C 10,6 C 2,9 km/h (1 Bft)
12.09.2012 23:02 10,3 C 20,8 C 11,9 C 10,7 C 10,7 C 0,4 C 87 % 93 % 0 % 1012,4 hPa 0,0 l/m 1,9 km/h (1 Bft) SW 225 0 min 0,0 UV-I 8,2 C 10,7 C 3,4 km/h (1 Bft)
12.09.2012 23:07 10,2 C 20,8 C 11,9 C 10,7 C 10,7 C 0,5 C 87 % 93 % 0 % 1012,4 hPa 0,0 l/m 1,8 km/h (1 Bft) SW 225 0 min 0,0 UV-I 8,1 C 10,7 C 1,9 km/h (1 Bft)
12.09.2012 23:12 10,3 C 20,8 C 11,7 C 10,6 C 10,6 C 0,3 C 87 % 93 % 0 % 1012,4 hPa 0,0 l/m 0,8 km/h (0 Bft) S 180 0 min 0,0 UV-I 8,2 C 10,6 C 2,6 km/h (1 Bft)
12.09.2012 23:17 10,3 C 20,8 C 11,7 C 10,6 C 10,6 C 0,3 C 87 % 93 % 0 % 1012,4 hPa 0,0 l/m 0,6 km/h (0 Bft) W-SW 247 0 min 0,0 UV-I 8,2 C 10,6 C 1,9 km/h (1 Bft)
12.09.2012 23:22 10,3 C 20,8 C 11,7 C 10,5 C 10,5 C 0,2 C 87 % 93 % 0 % 1012,2 hPa 0,0 l/m 0,6 km/h (0 Bft) S-SO 157 0 min 0,0 UV-I 8,2 C 10,5 C 3,1 km/h (1 Bft)
12.09.2012 23:27 10,2 C 20,8 C 11,7 C 10,5 C 10,5 C 0,3 C 87 % 93 % 0 % 1012,2 hPa 0,0 l/m 1,3 km/h (1 Bft) N-NW 337 0 min 0,0 UV-I 8,1 C 10,5 C 2,1 km/h (1 Bft)
12.09.2012 23:32 10,1 C 20,8 C 11,7 C 10,5 C 10,5 C 0,4 C 87 % 93 % 0 % 1012,2 hPa 0,0 l/m 1,6 km/h (1 Bft) SW 225 0 min 0,0 UV-I 8,0 C 10,5 C 0,0 km/h (0 Bft)
12.09.2012 23:37 10,1 C 20,8 C 11,7 C 10,6 C 10,6 C 0,5 C 87 % 93 % 0 % 1012,2 hPa 0,0 l/m 1,0 km/h (0 Bft) W-SW 247 0 min 0,0 UV-I 8,0 C 10,6 C 0,0 km/h (0 Bft)
12.09.2012 23:42 10,1 C 20,8 C 11,7 C 10,6 C 10,6 C 0,5 C 87 % 93 % 0 % 1012,2 hPa 0,0 l/m 0,6 km/h (0 Bft) W-SW 247 0 min 0,0 UV-I 8,0 C 10,6 C 0,0 km/h (0 Bft)
12.09.2012 23:47 10,1 C 20,8 C 11,6 C 10,6 C 10,6 C 0,5 C 87 % 93 % 0 % 1012,2 hPa 0,0 l/m 0,3 km/h (0 Bft) W-SW 247 0 min 0,0 UV-I 8,0 C 10,6 C 0,0 km/h (0 Bft)
12.09.2012 23:52 10,1 C 20,8 C 11,6 C 10,7 C 10,7 C 0,6 C 87 % 93 % 0 % 1012,2 hPa 0,0 l/m 0,2 km/h (0 Bft) W-SW 247 0 min 0,0 UV-I 8,0 C 10,7 C 0,0 km/h (0 Bft)
12.09.2012 23:57 10,1 C 20,8 C 11,6 C 10,7 C 10,7 C 0,6 C 87 % 93 % 0 % 1012,2 hPa 0,0 l/m 0,2 km/h (0 Bft) O-NO 67 0 min 0,0 UV-I 8,0 C 10,7 C 0,0 km/h (0 Bft)
_ Min-Zeit 23:32 18:35 23:47 23:22 23:22 18:35 15:15 18:35 00:00 00:00 - 01:15 - - - 00:00 21:10 23:22 00:05
Minimum _ 10,1 C 20,7 C 11,6 C 10,5 C 10,5 C 0,0 C 70 % 91 % 0 % 1009,3 hPa - 0,0 km/h (0 Bft) - - - 0,0 UV-I 7,7 C 10,5 C 0,0 km/h (0 Bft)
_ Max-Zeit 15:10 00:00 00:00 15:10 15:10 13:15 08:20 03:55 13:10 21:05 00:05 18:35 - - 06:55 14:00 00:05 15:10 18:25
Maximum _ 16,0 C 23,5 C 16,6 C 19,8 C 19,8 C 4,8 C 91 % 96 % 100 % 1012,4 hPa 0,7 l/m 7,4 km/h
W-SW (2 Bft)
- - 14 min 2,2 UV-I 14,0 C 19,8 C 14,5 km/h
W-SW (3 Bft)
Durchschnitt _ 12,7 C 21,8 C 13,4 C 13,5 C 13,5 C 0,9 C 84 % 94 % 18 % 1010,8 hPa #8,9 l/m 1,4 km/h (1 Bft) W-SW - #2:24 h 1,2 UV-I 10,1 C 13,5 C 1,9 km/h (1 Bft)
2012 www.wetterstation-wechselburg.de